sensor_id;sensor_type;location;lat;lon;timestamp;pressure;altitude;pressure_sealevel;temperature;humidity
4598;BME280;62772;48.646;8.906;2023-01-31T00:00:27;97160.59;;;0.21;100.00
4598;BME280;62772;48.646;8.906;2023-01-31T00:05:28;97158.41;;;0.17;100.00
4598;BME280;62772;48.646;8.906;2023-01-31T00:10:28;97153.09;;;0.06;100.00
4598;BME280;62772;48.646;8.906;2023-01-31T00:15:29;97154.38;;;0.33;100.00
4598;BME280;62772;48.646;8.906;2023-01-31T00:20:29;97156.53;;;0.06;100.00
4598;BME280;62772;48.646;8.906;2023-01-31T00:25:30;97145.97;;;0.13;100.00
4598;BME280;62772;48.646;8.906;2023-01-31T00:30:30;97150.22;;;0.26;100.00
4598;BME280;62772;48.646;8.906;2023-01-31T00:35:31;97147.38;;;0.27;100.00
4598;BME280;62772;48.646;8.906;2023-01-31T00:40:31;97146.22;;;0.23;100.00
4598;BME280;62772;48.646;8.906;2023-01-31T00:45:32;97148.09;;;-0.14;100.00
4598;BME280;62772;48.646;8.906;2023-01-31T00:50:32;97148.53;;;0.01;100.00
4598;BME280;62772;48.646;8.906;2023-01-31T00:55:32;97142.28;;;0.14;100.00
4598;BME280;62772;48.646;8.906;2023-01-31T01:00:33;97139.53;;;0.09;100.00
4598;BME280;62772;48.646;8.906;2023-01-31T01:05:35;97136.34;;;0.07;100.00
4598;BME280;62772;48.646;8.906;2023-01-31T01:10:36;97134.38;;;0.02;100.00
4598;BME280;62772;48.646;8.906;2023-01-31T01:15:37;97124.09;;;0.01;100.00
4598;BME280;62772;48.646;8.906;2023-01-31T01:20:38;97118.41;;;-0.15;100.00
4598;BME280;62772;48.646;8.906;2023-01-31T01:25:43;97118.56;;;-0.65;100.00
4598;BME280;62772;48.646;8.906;2023-01-31T01:30:44;97127.34;;;-0.71;100.00
4598;BME280;62772;48.646;8.906;2023-01-31T01:35:44;97126.53;;;-0.53;100.00
4598;BME280;62772;48.646;8.906;2023-01-31T01:40:44;97125.44;;;-0.46;100.00
4598;BME280;62772;48.646;8.906;2023-01-31T01:45:45;97122.13;;;-0.78;100.00
4598;BME280;62772;48.646;8.906;2023-01-31T01:50:47;97128.16;;;-0.52;100.00
4598;BME280;62772;48.646;8.906;2023-01-31T01:56:00;97132.50;;;-0.65;100.00
4598;BME280;62772;48.646;8.906;2023-01-31T02:01:04;97134.91;;;-0.63;100.00
4598;BME280;62772;48.646;8.906;2023-01-31T02:06:06;97133.97;;;-1.13;100.00
4598;BME280;62772;48.646;8.906;2023-01-31T02:11:18;97124.78;;;-0.60;100.00
4598;BME280;62772;48.646;8.906;2023-01-31T02:16:21;97131.03;;;-0.61;100.00
4598;BME280;62772;48.646;8.906;2023-01-31T02:27:17;97141.63;;;-0.30;100.00
4598;BME280;62772;48.646;8.906;2023-01-31T02:32:45;97140.75;;;-0.43;100.00
4598;BME280;62772;48.646;8.906;2023-01-31T02:43:12;97150.22;;;-0.60;100.00
4598;BME280;62772;48.646;8.906;2023-01-31T02:53:31;97148.41;;;-0.60;100.00
4598;BME280;62772;48.646;8.906;2023-01-31T02:58:36;97159.00;;;-0.92;100.00
4598;BME280;62772;48.646;8.906;2023-01-31T03:03:40;97160.94;;;-0.62;100.00
4598;BME280;62772;48.646;8.906;2023-01-31T03:08:42;97155.97;;;-0.51;100.00
4598;BME280;62772;48.646;8.906;2023-01-31T03:14:03;97161.25;;;-0.77;100.00
4598;BME280;62772;48.646;8.906;2023-01-31T03:19:15;97157.13;;;-0.66;100.00
4598;BME280;62772;48.646;8.906;2023-01-31T03:24:20;97160.75;;;-0.67;100.00
4598;BME280;62772;48.646;8.906;2023-01-31T03:29:27;97163.47;;;-0.74;100.00
4598;BME280;62772;48.646;8.906;2023-01-31T03:34:29;97161.66;;;-0.73;100.00
4598;BME280;62772;48.646;8.906;2023-01-31T03:39:52;97167.63;;;-0.66;100.00
4598;BME280;62772;48.646;8.906;2023-01-31T03:45:08;97164.16;;;-0.85;100.00
4598;BME280;62772;48.646;8.906;2023-01-31T03:50:19;97164.13;;;-0.60;100.00
4598;BME280;62772;48.646;8.906;2023-01-31T03:55:36;97170.19;;;-0.84;100.00
4598;BME280;62772;48.646;8.906;2023-01-31T04:00:41;97170.25;;;-1.16;100.00
4598;BME280;62772;48.646;8.906;2023-01-31T04:05:42;97170.94;;;-1.21;100.00
4598;BME280;62772;48.646;8.906;2023-01-31T04:10:45;97184.34;;;-1.11;100.00
4598;BME280;62772;48.646;8.906;2023-01-31T04:15:45;97184.25;;;-1.22;100.00
4598;BME280;62772;48.646;8.906;2023-01-31T04:20:46;97186.44;;;-1.19;100.00
4598;BME280;62772;48.646;8.906;2023-01-31T04:25:46;97174.78;;;-0.98;100.00
4598;BME280;62772;48.646;8.906;2023-01-31T04:30:54;97185.69;;;-1.26;100.00
4598;BME280;62772;48.646;8.906;2023-01-31T04:35:54;97185.78;;;-1.40;100.00
4598;BME280;62772;48.646;8.906;2023-01-31T04:40:55;97182.69;;;-1.69;100.00
4598;BME280;62772;48.646;8.906;2023-01-31T04:45:55;97182.81;;;-1.89;100.00
4598;BME280;62772;48.646;8.906;2023-01-31T04:50:56;97182.44;;;-1.54;100.00
4598;BME280;62772;48.646;8.906;2023-01-31T04:55:56;97185.94;;;-1.35;100.00
4598;BME280;62772;48.646;8.906;2023-01-31T05:00:56;97195.16;;;-1.64;100.00
4598;BME280;62772;48.646;8.906;2023-01-31T05:05:57;97185.88;;;-1.28;100.00
4598;BME280;62772;48.646;8.906;2023-01-31T05:10:59;97178.72;;;-1.39;100.00
4598;BME280;62772;48.646;8.906;2023-01-31T05:16:00;97182.56;;;-1.17;100.00
4598;BME280;62772;48.646;8.906;2023-01-31T05:21:01;97196.94;;;-1.26;100.00
4598;BME280;62772;48.646;8.906;2023-01-31T05:26:03;97196.47;;;-1.16;100.00
4598;BME280;62772;48.646;8.906;2023-01-31T05:31:05;97205.63;;;-1.25;100.00
4598;BME280;62772;48.646;8.906;2023-01-31T05:36:07;97192.94;;;-0.97;100.00
4598;BME280;62772;48.646;8.906;2023-01-31T05:41:07;97189.16;;;-0.82;100.00
4598;BME280;62772;48.646;8.906;2023-01-31T05:46:08;97192.94;;;-0.97;100.00
4598;BME280;62772;48.646;8.906;2023-01-31T05:51:08;97201.22;;;-1.00;100.00
4598;BME280;62772;48.646;8.906;2023-01-31T05:56:08;97197.94;;;-1.20;100.00
4598;BME280;62772;48.646;8.906;2023-01-31T06:01:09;97198.69;;;-1.45;100.00
4598;BME280;62772;48.646;8.906;2023-01-31T06:06:09;97197.88;;;-1.14;100.00
4598;BME280;62772;48.646;8.906;2023-01-31T06:11:11;97199.16;;;-1.23;100.00
4598;BME280;62772;48.646;8.906;2023-01-31T06:16:11;97199.53;;;-1.51;100.00
4598;BME280;62772;48.646;8.906;2023-01-31T06:21:12;97211.41;;;-1.49;100.00
4598;BME280;62772;48.646;8.906;2023-01-31T06:26:13;97212.84;;;-1.53;100.00
4598;BME280;62772;48.646;8.906;2023-01-31T06:31:14;97213.19;;;-1.42;100.00
4598;BME280;62772;48.646;8.906;2023-01-31T06:36:15;97215.50;;;-1.59;100.00
4598;BME280;62772;48.646;8.906;2023-01-31T06:41:15;97218.22;;;-1.41;100.00
4598;BME280;62772;48.646;8.906;2023-01-31T06:46:16;97226.53;;;-1.51;100.00
4598;BME280;62772;48.646;8.906;2023-01-31T06:51:17;97239.75;;;-1.77;100.00
4598;BME280;62772;48.646;8.906;2023-01-31T06:56:18;97240.09;;;-1.60;100.00
4598;BME280;62772;48.646;8.906;2023-01-31T07:01:18;97229.38;;;-1.52;100.00
4598;BME280;62772;48.646;8.906;2023-01-31T07:06:21;97221.72;;;-1.54;100.00
4598;BME280;62772;48.646;8.906;2023-01-31T07:11:22;97212.38;;;-1.75;100.00
4598;BME280;62772;48.646;8.906;2023-01-31T07:16:22;97212.84;;;-1.53;100.00
4598;BME280;62772;48.646;8.906;2023-01-31T07:21:24;97222.50;;;-1.92;100.00
4598;BME280;62772;48.646;8.906;2023-01-31T07:26:25;97223.63;;;-1.74;100.00
4598;BME280;62772;48.646;8.906;2023-01-31T07:31:26;97228.19;;;-2.02;100.00
4598;BME280;62772;48.646;8.906;2023-01-31T07:36:27;97232.38;;;-2.01;100.00
4598;BME280;62772;48.646;8.906;2023-01-31T07:41:27;97239.22;;;-1.93;100.00
4598;BME280;62772;48.646;8.906;2023-01-31T07:46:27;97237.94;;;-1.70;100.00
4598;BME280;62772;48.646;8.906;2023-01-31T07:51:28;97238.47;;;-1.61;100.00
4598;BME280;62772;48.646;8.906;2023-01-31T07:56:28;97229.38;;;-1.52;100.00
4598;BME280;62772;48.646;8.906;2023-01-31T08:01:29;97234.16;;;-1.42;100.00
4598;BME280;62772;48.646;8.906;2023-01-31T08:06:50;97232.91;;;-1.72;100.00
4598;BME280;62772;48.646;8.906;2023-01-31T08:11:52;97240.47;;;-1.57;100.00
4598;BME280;62772;48.646;8.906;2023-01-31T08:16:55;97236.19;;;-1.51;100.00
4598;BME280;62772;48.646;8.906;2023-01-31T08:21:56;97241.56;;;-1.33;100.00
4598;BME280;62772;48.646;8.906;2023-01-31T08:26:56;97240.09;;;-1.22;100.00
4598;BME280;62772;48.646;8.906;2023-01-31T08:31:57;97236.09;;;-0.99;100.00
4598;BME280;62772;48.646;8.906;2023-01-31T08:36:57;97232.50;;;-0.80;100.00
4598;BME280;62772;48.646;8.906;2023-01-31T08:42:00;97224.97;;;-0.69;100.00
4598;BME280;62772;48.646;8.906;2023-01-31T08:47:00;97215.09;;;-0.49;100.00
4598;BME280;62772;48.646;8.906;2023-01-31T08:52:01;97212.69;;;-0.32;100.00
4598;BME280;62772;48.646;8.906;2023-01-31T08:57:02;97191.28;;;-0.10;100.00
4598;BME280;62772;48.646;8.906;2023-01-31T09:02:02;97201.78;;;0.08;100.00
4598;BME280;62772;48.646;8.906;2023-01-31T09:07:03;97200.00;;;0.21;100.00
4598;BME280;62772;48.646;8.906;2023-01-31T09:12:03;97200.94;;;0.26;100.00
4598;BME280;62772;48.646;8.906;2023-01-31T09:17:04;97205.09;;;0.34;100.00
4598;BME280;62772;48.646;8.906;2023-01-31T09:22:07;97204.47;;;0.50;100.00
4598;BME280;62772;48.646;8.906;2023-01-31T09:27:07;97204.03;;;0.53;100.00
4598;BME280;62772;48.646;8.906;2023-01-31T09:32:08;97204.53;;;0.62;100.00
4598;BME280;62772;48.646;8.906;2023-01-31T09:37:08;97195.88;;;0.74;100.00
4598;BME280;62772;48.646;8.906;2023-01-31T09:42:21;97203.31;;;0.88;100.00
4598;BME280;62772;48.646;8.906;2023-01-31T09:47:25;97193.75;;;0.94;100.00
4598;BME280;62772;48.646;8.906;2023-01-31T09:52:28;97195.94;;;0.97;100.00
4598;BME280;62772;48.646;8.906;2023-01-31T10:08:54;97199.91;;;1.00;100.00
4598;BME280;62772;48.646;8.906;2023-01-31T10:18:39;97196.94;;;1.08;100.00
4598;BME280;62772;48.646;8.906;2023-01-31T10:23:55;97196.72;;;1.09;100.00
4598;BME280;62772;48.646;8.906;2023-01-31T10:29:22;97204.53;;;1.16;100.00
4598;BME280;62772;48.646;8.906;2023-01-31T10:34:56;97212.88;;;1.25;100.00
4598;BME280;62772;48.646;8.906;2023-01-31T10:40:25;97196.63;;;1.40;100.00
4598;BME280;62772;48.646;8.906;2023-01-31T10:45:28;97189.31;;;1.42;100.00
4598;BME280;62772;48.646;8.906;2023-01-31T11:00:59;97184.47;;;1.74;100.00
4598;BME280;62772;48.646;8.906;2023-01-31T11:06:00;97184.81;;;1.78;100.00
4598;BME280;62772;48.646;8.906;2023-01-31T11:11:06;97179.66;;;1.83;100.00
4598;BME280;62772;48.646;8.906;2023-01-31T11:16:09;97167.19;;;1.78;100.00
4598;BME280;62772;48.646;8.906;2023-01-31T11:21:25;97185.38;;;1.92;100.00
4598;BME280;62772;48.646;8.906;2023-01-31T11:26:30;97185.59;;;2.02;100.00
4598;BME280;62772;48.646;8.906;2023-01-31T11:31:35;97163.75;;;2.18;100.00
4598;BME280;62772;48.646;8.906;2023-01-31T11:36:42;97148.59;;;2.26;100.00
4598;BME280;62772;48.646;8.906;2023-01-31T11:41:42;97137.09;;;2.32;100.00
4598;BME280;62772;48.646;8.906;2023-01-31T11:51:47;97116.63;;;2.22;100.00
4598;BME280;62772;48.646;8.906;2023-01-31T11:56:47;97098.28;;;2.27;100.00
4598;BME280;62772;48.646;8.906;2023-01-31T12:01:51;97120.22;;;2.16;100.00
4598;BME280;62772;48.646;8.906;2023-01-31T12:07:02;97129.91;;;1.98;100.00
4598;BME280;62772;48.646;8.906;2023-01-31T12:17:20;97117.47;;;1.82;100.00
4598;BME280;62772;48.646;8.906;2023-01-31T12:22:29;97130.66;;;1.70;100.00
4598;BME280;62772;48.646;8.906;2023-01-31T12:27:40;97115.78;;;1.76;100.00
4598;BME280;62772;48.646;8.906;2023-01-31T12:44:01;97076.03;;;1.77;100.00
4598;BME280;62772;48.646;8.906;2023-01-31T13:10:56;97033.59;;;1.62;100.00
4598;BME280;62772;48.646;8.906;2023-01-31T13:16:04;97035.97;;;1.47;100.00
4598;BME280;62772;48.646;8.906;2023-01-31T13:21:14;97010.56;;;1.40;100.00
4598;BME280;62772;48.646;8.906;2023-01-31T13:26:19;97016.59;;;1.53;100.00
4598;BME280;62772;48.646;8.906;2023-01-31T13:31:30;97019.56;;;1.44;100.00
4598;BME280;62772;48.646;8.906;2023-01-31T13:36:43;97005.63;;;1.73;100.00
4598;BME280;62772;48.646;8.906;2023-01-31T13:41:44;97003.94;;;1.67;100.00
4598;BME280;62772;48.646;8.906;2023-01-31T13:46:55;96986.03;;;1.52;100.00
4598;BME280;62772;48.646;8.906;2023-01-31T13:51:59;96997.72;;;1.44;100.00
4598;BME280;62772;48.646;8.906;2023-01-31T13:57:02;96998.75;;;1.43;100.00
4598;BME280;62772;48.646;8.906;2023-01-31T14:02:14;97009.91;;;1.62;100.00
4598;BME280;62772;48.646;8.906;2023-01-31T14:07:18;97025.44;;;1.47;100.00
4598;BME280;62772;48.646;8.906;2023-01-31T14:22:29;97004.88;;;1.60;100.00
4598;BME280;62772;48.646;8.906;2023-01-31T15:00:33;96944.78;;;1.86;100.00
4598;BME280;62772;48.646;8.906;2023-01-31T15:11:00;96962.00;;;1.94;100.00
4598;BME280;62772;48.646;8.906;2023-01-31T15:16:02;96950.44;;;1.95;100.00
4598;BME280;62772;48.646;8.906;2023-01-31T15:21:05;96950.91;;;1.92;100.00
4598;BME280;62772;48.646;8.906;2023-01-31T15:26:07;96962.09;;;1.99;100.00
4598;BME280;62772;48.646;8.906;2023-01-31T15:31:39;96986.53;;;1.94;100.00
4598;BME280;62772;48.646;8.906;2023-01-31T15:41:55;97013.00;;;1.88;100.00
4598;BME280;62772;48.646;8.906;2023-01-31T15:46:56;96999.00;;;1.99;100.00
4598;BME280;62772;48.646;8.906;2023-01-31T15:57:14;96988.03;;;1.90;100.00
4598;BME280;62772;48.646;8.906;2023-01-31T16:02:27;97008.59;;;1.76;100.00
4598;BME280;62772;48.646;8.906;2023-01-31T16:07:28;97022.97;;;1.86;100.00
4598;BME280;62772;48.646;8.906;2023-01-31T16:12:31;97023.38;;;1.77;100.00
4598;BME280;62772;48.646;8.906;2023-01-31T16:17:32;97032.91;;;1.95;100.00
4598;BME280;62772;48.646;8.906;2023-01-31T16:22:33;97042.97;;;1.98;100.00
4598;BME280;62772;48.646;8.906;2023-01-31T16:27:37;97039.03;;;1.84;100.00
4598;BME280;62772;48.646;8.906;2023-01-31T16:32:41;97038.84;;;1.74;100.00
4598;BME280;62772;48.646;8.906;2023-01-31T16:37:43;97026.78;;;1.78;100.00
4598;BME280;62772;48.646;8.906;2023-01-31T16:42:44;97035.84;;;1.70;100.00
4598;BME280;62772;48.646;8.906;2023-01-31T16:47:47;97040.25;;;1.65;100.00
4598;BME280;62772;48.646;8.906;2023-01-31T16:53:49;97052.97;;;1.56;100.00
4598;BME280;62772;48.646;8.906;2023-01-31T16:58:46;97038.94;;;1.79;100.00
4598;BME280;62772;48.646;8.906;2023-01-31T17:04:00;97055.25;;;1.64;100.00
4598;BME280;62772;48.646;8.906;2023-01-31T17:09:02;97049.28;;;1.69;100.00
4598;BME280;62772;48.646;8.906;2023-01-31T17:14:03;97053.34;;;1.76;100.00
4598;BME280;62772;48.646;8.906;2023-01-31T17:19:03;97058.00;;;1.57;100.00
4598;BME280;62772;48.646;8.906;2023-01-31T17:24:04;97061.16;;;1.71;100.00
4598;BME280;62772;48.646;8.906;2023-01-31T17:29:05;97065.59;;;1.83;100.00
4598;BME280;62772;48.646;8.906;2023-01-31T17:34:10;97062.84;;;1.37;100.00
4598;BME280;62772;48.646;8.906;2023-01-31T17:39:11;97060.59;;;1.69;100.00
4598;BME280;62772;48.646;8.906;2023-01-31T17:44:13;97064.00;;;1.53;100.00
4598;BME280;62772;48.646;8.906;2023-01-31T17:49:14;97052.84;;;1.62;100.00
4598;BME280;62772;48.646;8.906;2023-01-31T17:54:14;97050.88;;;1.70;100.00
4598;BME280;62772;48.646;8.906;2023-01-31T17:59:15;97053.25;;;1.71;100.00
4598;BME280;62772;48.646;8.906;2023-01-31T18:04:15;97051.56;;;1.65;100.00
4598;BME280;62772;48.646;8.906;2023-01-31T18:09:16;97043.03;;;1.46;100.00
4598;BME280;62772;48.646;8.906;2023-01-31T18:14:17;97056.59;;;1.67;100.00
4598;BME280;62772;48.646;8.906;2023-01-31T18:19:18;97046.16;;;1.31;100.00
4598;BME280;62772;48.646;8.906;2023-01-31T18:24:19;97039.66;;;1.22;100.00
4598;BME280;62772;48.646;8.906;2023-01-31T18:29:19;97030.38;;;1.31;100.00
4598;BME280;62772;48.646;8.906;2023-01-31T18:34:23;97016.94;;;1.44;100.00
4598;BME280;62772;48.646;8.906;2023-01-31T18:39:23;97027.72;;;1.43;100.00
4598;BME280;62772;48.646;8.906;2023-01-31T18:44:24;97004.47;;;1.40;100.00
4598;BME280;62772;48.646;8.906;2023-01-31T18:49:24;97016.59;;;1.53;100.00
4598;BME280;62772;48.646;8.906;2023-01-31T18:54:25;97029.03;;;1.57;100.00
4598;BME280;62772;48.646;8.906;2023-01-31T18:59:25;97032.88;;;1.50;100.00
4598;BME280;62772;48.646;8.906;2023-01-31T19:04:26;97030.56;;;1.53;100.00
4598;BME280;62772;48.646;8.906;2023-01-31T19:09:26;97043.97;;;1.40;100.00
4598;BME280;62772;48.646;8.906;2023-01-31T19:14:27;97046.50;;;1.35;100.00
4598;BME280;62772;48.646;8.906;2023-01-31T19:19:27;97043.94;;;1.52;100.00
4598;BME280;62772;48.646;8.906;2023-01-31T19:24:28;97020.88;;;1.42;100.00
4598;BME280;62772;48.646;8.906;2023-01-31T19:29:28;97035.66;;;1.31;100.00
4598;BME280;62772;48.646;8.906;2023-01-31T19:34:28;97031.41;;;1.30;100.00
4598;BME280;62772;48.646;8.906;2023-01-31T19:39:29;97021.31;;;1.39;100.00
4598;BME280;62772;48.646;8.906;2023-01-31T19:44:29;97038.91;;;1.50;100.00
4598;BME280;62772;48.646;8.906;2023-01-31T19:49:30;97020.50;;;1.50;100.00
4598;BME280;62772;48.646;8.906;2023-01-31T19:54:32;97010.25;;;1.25;100.00
4598;BME280;62772;48.646;8.906;2023-01-31T19:59:32;97008.41;;;1.37;100.00
4598;BME280;62772;48.646;8.906;2023-01-31T20:04:33;96998.94;;;1.24;100.00
4598;BME280;62772;48.646;8.906;2023-01-31T20:09:34;96995.75;;;1.11;100.00
4598;BME280;62772;48.646;8.906;2023-01-31T20:14:34;96993.22;;;1.27;100.00
4598;BME280;62772;48.646;8.906;2023-01-31T20:19:35;96999.31;;;1.16;100.00
4598;BME280;62772;48.646;8.906;2023-01-31T20:24:35;96994.56;;;1.30;100.00
4598;BME280;62772;48.646;8.906;2023-01-31T20:29:35;96997.22;;;1.18;100.00
4598;BME280;62772;48.646;8.906;2023-01-31T20:34:36;97004.56;;;1.16;100.00
4598;BME280;62772;48.646;8.906;2023-01-31T20:39:36;96998.28;;;1.05;100.00
4598;BME280;62772;48.646;8.906;2023-01-31T20:44:37;96994.75;;;1.00;100.00
4598;BME280;62772;48.646;8.906;2023-01-31T20:49:37;97007.44;;;1.15;100.00
4598;BME280;62772;48.646;8.906;2023-01-31T20:54:38;97010.38;;;1.18;100.00
4598;BME280;62772;48.646;8.906;2023-01-31T20:59:38;97012.78;;;1.20;100.00
4598;BME280;62772;48.646;8.906;2023-01-31T21:04:39;97013.94;;;1.12;100.00
4598;BME280;62772;48.646;8.906;2023-01-31T21:09:39;97028.25;;;1.16;100.00
4598;BME280;62772;48.646;8.906;2023-01-31T21:14:40;97023.69;;;1.12;100.00
4598;BME280;62772;48.646;8.906;2023-01-31T21:19:40;97005.50;;;0.98;100.00
4598;BME280;62772;48.646;8.906;2023-01-31T21:24:42;96982.69;;;1.27;100.00
4598;BME280;62772;48.646;8.906;2023-01-31T21:29:42;96984.72;;;1.25;100.00
4598;BME280;62772;48.646;8.906;2023-01-31T21:34:43;96976.50;;;1.34;100.00
4598;BME280;62772;48.646;8.906;2023-01-31T21:39:43;96964.50;;;1.26;100.00
4598;BME280;62772;48.646;8.906;2023-01-31T21:44:45;96955.38;;;1.17;100.00
4598;BME280;62772;48.646;8.906;2023-01-31T21:49:46;96966.81;;;1.11;100.00
4598;BME280;62772;48.646;8.906;2023-01-31T21:54:46;96978.59;;;1.20;100.00
4598;BME280;62772;48.646;8.906;2023-01-31T21:59:47;96976.78;;;1.08;100.00
4598;BME280;62772;48.646;8.906;2023-01-31T22:04:47;96970.38;;;1.04;100.00
4598;BME280;62772;48.646;8.906;2023-01-31T22:09:48;96976.84;;;1.25;100.00
4598;BME280;62772;48.646;8.906;2023-01-31T22:14:48;96973.69;;;1.12;100.00
4598;BME280;62772;48.646;8.906;2023-01-31T22:19:49;96990.25;;;1.12;100.00
4598;BME280;62772;48.646;8.906;2023-01-31T22:24:49;96995.38;;;1.31;100.00
4598;BME280;62772;48.646;8.906;2023-01-31T22:29:50;96997.19;;;1.30;100.00
4598;BME280;62772;48.646;8.906;2023-01-31T22:34:50;97001.38;;;1.02;100.00
4598;BME280;62772;48.646;8.906;2023-01-31T22:39:50;96995.56;;;1.41;100.00
4598;BME280;62772;48.646;8.906;2023-01-31T22:44:51;96994.19;;;1.38;100.00
4598;BME280;62772;48.646;8.906;2023-01-31T22:49:51;96992.00;;;1.47;100.00
4598;BME280;62772;48.646;8.906;2023-01-31T22:54:52;96999.63;;;1.08;100.00
4598;BME280;62772;48.646;8.906;2023-01-31T22:59:52;96999.06;;;1.18;100.00
4598;BME280;62772;48.646;8.906;2023-01-31T23:04:52;96989.53;;;1.29;100.00
4598;BME280;62772;48.646;8.906;2023-01-31T23:09:53;96990.81;;;1.26;100.00
4598;BME280;62772;48.646;8.906;2023-01-31T23:14:53;96985.19;;;1.34;100.00
4598;BME280;62772;48.646;8.906;2023-01-31T23:19:54;96972.09;;;1.39;100.00
4598;BME280;62772;48.646;8.906;2023-01-31T23:24:54;96963.25;;;1.17;100.00
4598;BME280;62772;48.646;8.906;2023-01-31T23:29:55;96958.41;;;1.25;100.00
4598;BME280;62772;48.646;8.906;2023-01-31T23:34:55;96956.25;;;1.22;100.00
4598;BME280;62772;48.646;8.906;2023-01-31T23:39:56;96961.03;;;1.25;100.00
4598;BME280;62772;48.646;8.906;2023-01-31T23:44:56;96960.72;;;1.22;100.00
4598;BME280;62772;48.646;8.906;2023-01-31T23:49:57;96964.06;;;1.17;100.00
4598;BME280;62772;48.646;8.906;2023-01-31T23:54:57;96955.00;;;1.25;100.00
4598;BME280;62772;48.646;8.906;2023-01-31T23:59:57;96947.56;;;1.22;100.00
